地図

経路データ

SID SEASON NUMBER BASIN SUBBASIN NAME ISO_TIME NATURE LAT LON WMO_WIND WMO_PRES WMO_AGENCY TRACK_TYPE DIST2LAND LANDFALL IFLAG USA_AGENCY USA_ATCF_ID USA_LAT USA_LON USA_RECORD USA_STATUS USA_WIND USA_PRES USA_SSHS USA_R34_NE USA_R34_SE USA_R34_SW USA_R34_NW USA_R50_NE USA_R50_SE USA_R50_SW USA_R50_NW USA_R64_NE USA_R64_SE USA_R64_SW USA_R64_NW USA_POCI USA_ROCI USA_RMW USA_EYE TOKYO_LAT TOKYO_LON TOKYO_GRADE TOKYO_WIND TOKYO_PRES TOKYO_R50_DIR TOKYO_R50_LONG TOKYO_R50_SHORT TOKYO_R30_DIR TOKYO_R30_LONG TOKYO_R30_SHORT TOKYO_LAND CMA_LAT CMA_LON CMA_CAT CMA_WIND CMA_PRES HKO_LAT HKO_LON HKO_CAT HKO_WIND HKO_PRES NEWDELHI_LAT NEWDELHI_LON NEWDELHI_GRADE NEWDELHI_WIND NEWDELHI_PRES NEWDELHI_CI NEWDELHI_DP NEWDELHI_POCI REUNION_LAT REUNION_LON REUNION_TYPE REUNION_WIND REUNION_PRES REUNION_TNUM REUNION_CI REUNION_RMW REUNION_R34_NE REUNION_R34_SE REUNION_R34_SW REUNION_R34_NW REUNION_R50_NE REUNION_R50_SE REUNION_R50_SW REUNION_R50_NW REUNION_R64_NE REUNION_R64_SE REUNION_R64_SW REUNION_R64_NW BOM_LAT BOM_LON BOM_TYPE BOM_WIND BOM_PRES BOM_TNUM BOM_CI BOM_RMW BOM_R34_NE BOM_R34_SE BOM_R34_SW BOM_R34_NW BOM_R50_NE BOM_R50_SE BOM_R50_SW BOM_R50_NW BOM_R64_NE BOM_R64_SE BOM_R64_SW BOM_R64_NW BOM_ROCI BOM_POCI BOM_EYE BOM_POS_METHOD BOM_PRES_METHOD NADI_LAT NADI_LON NADI_CAT NADI_WIND NADI_PRES WELLINGTON_LAT WELLINGTON_LON WELLINGTON_WIND WELLINGTON_PRES DS824_LAT DS824_LON DS824_STAGE DS824_WIND DS824_PRES TD9636_LAT TD9636_LON TD9636_STAGE TD9636_WIND TD9636_PRES TD9635_LAT TD9635_LON TD9635_WIND TD9635_PRES TD9635_ROCI NEUMANN_LAT NEUMANN_LON NEUMANN_CLASS NEUMANN_WIND NEUMANN_PRES MLC_LAT MLC_LON MLC_CLASS MLC_WIND MLC_PRES USA_GUST BOM_GUST BOM_GUST_PER REUNION_GUST REUNION_GUST_PER USA_SEAHGT USA_SEARAD_NE USA_SEARAD_SE USA_SEARAD_SW USA_SEARAD_NW STORM_SPEED STORM_DIR
1976286N11071 1976 125 NI AS NOT_NAMED 1976-10-12 00:00:00 TS 10.7000 70.6000 main 514 514 O________OO___ jtwc_io IO081976 10.7000 70.6000 -1 10.7000 70.6000 TC 10.7000 70.6000 1 2 299
1976286N11071 1976 125 NI AS NOT_NAMED 1976-10-12 03:00:00 TS 10.7475 70.5058 main 524 519 P________PP___ IO081976 10.7400 70.5150 -1 10.7400 70.5150 TC 10.7625 70.4875 1 2 298
1976286N11071 1976 125 NI AS NOT_NAMED 1976-10-12 06:00:00 TS 10.8100 70.3867 main 528 528 O________OP___ jtwc_io IO081976 10.8000 70.4000 -1 10.8000 70.4000 TC 10.8300 70.3600 1 3 298
1976286N11071 1976 125 NI AS NOT_NAMED 1976-10-12 09:00:00 TS 10.8975 70.2208 main 544 544 P________PP___ IO081976 10.8925 70.2300 -1 10.8925 70.2300 TC 10.9075 70.2025 1 4 297
1976286N11071 1976 125 NI AS NOT_NAMED 1976-10-12 12:00:00 TS 11.0000 70.0000 main 560 560 O________OO___ jtwc_io IO081976 11.0000 70.0000 -1 11.0000 70.0000 TC 11.0000 70.0000 1 5 293
1976286N11071 1976 125 NI AS NOT_NAMED 1976-10-12 15:00:00 TS 11.0985 69.7288 main 586 586 P________PP___ IO081976 11.0925 69.7225 -1 11.0925 69.7225 TC 11.1106 69.7415 1 6 290
1976286N11071 1976 125 NI AS NOT_NAMED 1976-10-12 18:00:00 TS 11.2116 69.4108 main 614 614 O________OP___ jtwc_io IO081976 11.2000 69.4000 -1 11.2000 69.4000 TC 11.2349 69.4324 1 7 292
1976286N11071 1976 125 NI AS NOT_NAMED 1976-10-12 21:00:00 TS 11.3556 69.0707 main 639 639 P________PP___ IO081976 11.3500 69.0650 -1 11.3500 69.0650 TC 11.3668 69.0821 1 8 292
1976286N11071 1976 125 NI AS NOT_NAMED 1976-10-13 00:00:00 TS 11.5000 68.7000 main 679 679 O________OO___ jtwc_io IO081976 11.5000 68.7000 -1 11.5000 68.7000 TC 11.5000 68.7000 1 8 289
1976286N11071 1976 125 NI AS NOT_NAMED 1976-10-13 03:00:00 TS 11.6150 68.3180 main 719 719 P________PP___ IO081976 11.5999 68.3149 -1 11.5999 68.3149 TC 11.6451 68.3242 1 8 286
1976286N11071 1976 125 NI AS NOT_NAMED 1976-10-13 06:00:00 TS 11.7290 67.9059 main 752 752 O________OP___ jtwc_io IO081976 11.7000 67.9000 -1 11.7000 67.9000 TC 11.7871 67.9177 1 9 287
1976286N11071 1976 125 NI AS NOT_NAMED 1976-10-13 09:00:00 TS 11.8751 67.4741 main 779 779 P________PP___ IO081976 11.8574 67.4725 -1 11.8574 67.4725 TC 11.9106 67.4773 1 9 287
1976286N11071 1976 125 NI AS NOT_NAMED 1976-10-13 12:00:00 TS 12.0000 67.0000 main 822 822 O________OO___ jtwc_io IO081976 12.0000 67.0000 -1 12.0000 67.0000 TC 12.0000 67.0000 1 10 281
1976286N11071 1976 125 NI AS NOT_NAMED 1976-10-13 15:00:00 TS 12.0640 66.4665 main 867 867 P________PP___ IO081976 12.0800 66.4650 -1 12.0800 66.4650 TC 12.0321 66.4694 1 11 274
1976286N11071 1976 125 NI AS NOT_NAMED 1976-10-13 18:00:00 TS 12.0768 65.9023 main 927 927 O________OP___ jtwc_io IO081976 12.1000 65.9000 -1 12.1000 65.9000 TC 12.0303 65.9070 1 11 269
1976286N11071 1976 125 NI AS NOT_NAMED 1976-10-13 21:00:00 TS 12.0428 65.3370 main 992 992 P________PP___ IO081976 12.0575 65.3349 -1 12.0575 65.3349 TC 12.0133 65.3412 1 11 266
1976286N11071 1976 125 NI AS NOT_NAMED 1976-10-14 00:00:00 TS 12.0000 64.8000 main 1042 1042 O________OO___ jtwc_io IO081976 12.0000 64.8000 -1 12.0000 64.8000 TC 12.0000 64.8000 1 10 267
1976286N11071 1976 125 NI AS NOT_NAMED 1976-10-14 03:00:00 TS 11.9943 64.3291 main 1048 1020 P________PP___ IO081976 11.9849 64.3350 -1 11.9849 64.3350 TC 12.0133 64.3172 1 9 271
1976286N11071 1976 125 NI AS NOT_NAMED 1976-10-14 06:00:00 TS 12.0115 63.8875 main 1020 980 O________OP___ jtwc_io IO081976 12.0000 63.9000 -1 12.0000 63.9000 TC 12.0345 63.8625 1 9 274
1976286N11071 1976 125 NI AS NOT_NAMED 1976-10-14 09:00:00 TS 12.0494 63.4372 main 969 925 P________PP___ IO081976 12.0425 63.4425 -1 12.0425 63.4425 TC 12.0634 63.4266 1 9 276
1976286N11071 1976 125 NI AS NOT_NAMED 1976-10-14 12:00:00 TS 12.1000 63.0000 main 925 882 O________OO___ jtwc_io IO081976 12.1000 63.0000 -1 12.1000 63.0000 TC 12.1000 63.0000 2 8 277
1976286N11071 1976 125 NI AS NOT_NAMED 1976-10-14 15:00:00 TS 12.1460 62.5973 main 882 837 P________PP___ IO081976 12.1499 62.6000 -1 12.1499 62.6000 TC 12.1382 62.5921 2 8 277
1976286N11071 1976 125 NI AS NOT_NAMED 1976-10-14 18:00:00 TS 12.1947 62.1958 main 837 794 O________OP___ jtwc_io IO081976 12.2000 62.2000 -1 12.2000 62.2000 TC 12.1842 62.1873 2 8 277
1976286N11071 1976 125 NI AS NOT_NAMED 1976-10-14 21:00:00 TS 12.2460 61.7696 main 794 739 P________PP___ IO081976 12.2499 61.7725 -1 12.2499 61.7725 TC 12.2381 61.7639 2 9 277
1976286N11071 1976 125 NI AS NOT_NAMED 1976-10-15 00:00:00 TS 12.3000 61.3000 main 739 685 O________OO___ jtwc_io IO081976 12.3000 61.3000 -1 12.3000 61.3000 TC 12.3000 61.3000 2 10 276
1976286N11071 1976 125 NI AS NOT_NAMED 1976-10-15 03:00:00 TS 12.3510 60.7669 main 684 619 P________PP___ IO081976 12.3424 60.7724 -1 12.3424 60.7724 TC 12.3680 60.7560 2 11 276
1976286N11071 1976 125 NI AS NOT_NAMED 1976-10-15 06:00:00 TS 12.4143 60.1908 main 619 554 O________OP___ jtwc_io IO081976 12.4000 60.2000 XX 35 -5 12.4000 60.2000 TC 35 12.4428 60.1725 2 12 278
1976286N11071 1976 125 NI AS NOT_NAMED 1976-10-15 09:00:00 TS 12.5070 59.5877 main 554 488 P________PP___ IO081976 12.5000 59.5926 XX 37 -5 12.5000 59.5926 TC 37 12.5211 59.5778 2 12 279
1976286N11071 1976 125 NI AS NOT_NAMED 1976-10-15 12:00:00 TS 12.6000 59.0000 main 488 434 O________OO___ jtwc_io IO081976 12.6000 59.0000 XX 40 -5 12.6000 59.0000 TC 40 12.6000 59.0000 4 11 278
1976286N11071 1976 125 NI AS NOT_NAMED 1976-10-15 15:00:00 TS 12.6608 58.4827 main 434 380 P________PP___ IO081976 12.6498 58.4849 XX 42 -5 12.6498 58.4849 TC 42 12.6826 58.4785 4 10 277
1976286N11071 1976 125 NI AS NOT_NAMED 1976-10-15 18:00:00 TS 12.7215 57.9925 main 380 326 O________OP___ jtwc_io IO081976 12.7000 58.0000 XX 45 -5 12.7000 58.0000 TC 45 12.7644 57.9776 4 10 279
1976286N11071 1976 125 NI AS NOT_NAMED 1976-10-15 21:00:00 TS 12.8129 57.4960 main 326 273 P________PP___ IO081976 12.7999 57.5000 XX 47 -5 12.7999 57.5000 TC 47 12.8389 57.4879 4 10 280
1976286N11071 1976 125 NI AS NOT_NAMED 1976-10-16 00:00:00 TS 12.9000 57.0000 main 273 221 O________OO___ jtwc_io IO081976 12.9000 57.0000 XX 50 -5 12.9000 57.0000 TC 50 12.9000 57.0000 4 10 279
1976286N11071 1976 125 NI AS NOT_NAMED 1976-10-16 03:00:00 TS 12.9605 56.4892 main 221 168 P________PP___ IO081976 12.9649 56.5000 XX 50 -5 12.9649 56.5000 TC 50 12.9517 56.4675 4 10 276
1976286N11071 1976 125 NI AS NOT_NAMED 1976-10-16 06:00:00 TS 12.9959 55.9800 main 168 117 O________OP___ jtwc_io IO081976 13.0000 56.0000 XX 50 -5 13.0000 56.0000 TC 50 12.9877 55.9401 4 10 273
1976286N11071 1976 125 NI AS NOT_NAMED 1976-10-16 09:00:00 TS 13.0116 55.4659 main 117 70 P________PP___ IO081976 13.0150 55.4775 XX 50 -5 13.0150 55.4775 TC 50 13.0049 55.4426 4 10 270
1976286N11071 1976 125 NI AS NOT_NAMED 1976-10-16 12:00:00 TS 13.0000 55.0000 main 70 46 O________OO___ jtwc_io IO081976 13.0000 55.0000 XX 50 -5 13.0000 55.0000 TC 50 13.0000 55.0000 2 8 267
1976286N11071 1976 125 NI AS NOT_NAMED 1976-10-16 15:00:00 TS 12.9620 54.6157 main 46 33 P________PP___ IO081976 12.9574 54.6125 XX 50 -5 12.9574 54.6125 TC 50 12.9712 54.6221 2 7 262
1976286N11071 1976 125 NI AS NOT_NAMED 1976-10-16 18:00:00 TS 12.9074 54.3008 main 33 33 O________OP___ jtwc_io IO081976 12.9000 54.3000 XX 50 -5 12.9000 54.3000 TC 50 12.9221 54.3024 2 6 259
1976286N11071 1976 125 NI AS NOT_NAMED 1976-10-16 21:00:00 TS 12.8539 54.0289 main 33 22 P________PP___ IO081976 12.8499 54.0275 XX 47 -5 12.8499 54.0275 TC 47 12.8619 54.0315 2 5 258
1976286N11071 1976 125 NI AS NOT_NAMED 1976-10-17 00:00:00 TS 12.8000 53.8000 main 22 22 O________OO___ jtwc_io IO081976 12.8000 53.8000 XX 45 -5 12.8000 53.8000 TC 45 12.8000 53.8000 1 4 256
1976286N11071 1976 125 NI AS NOT_NAMED 1976-10-17 03:00:00 TS 12.7486 53.5837 main 11 11 P________PP___ IO081976 12.7500 53.5850 XX 42 -5 12.7500 53.5850 TC 42 12.7458 53.5810 1 4 255
1976286N11071 1976 125 NI AS NOT_NAMED 1976-10-17 06:00:00 TS 12.6974 53.3992 main 11 11 O________OP___ jtwc_io IO081976 12.7000 53.4000 XX 40 -5 12.7000 53.4000 TC 40 12.6923 53.3975 1 3 253
1976286N11071 1976 125 NI AS NOT_NAMED 1976-10-17 09:00:00 TS 12.6476 53.2418 main 15 15 P________PP___ IO081976 12.6500 53.2425 XX 37 -5 12.6500 53.2425 TC 37 12.6427 53.2403 1 3 251
1976286N11071 1976 125 NI AS NOT_NAMED 1976-10-17 12:00:00 TS 12.6000 53.1000 main 24 24 O________OO___ jtwc_io IO081976 12.6000 53.1000 XX 35 -5 12.6000 53.1000 TC 35 12.6000 53.1000 1 3 252
1976286N11071 1976 125 NI AS NOT_NAMED 1976-10-17 15:00:00 TS 12.5496 52.9418 main 43 43 P________PP___ IO081976 12.5425 52.9425 XX 32 -5 12.5425 52.9425 TC 32 12.5637 52.9403 1 3 253
1976286N11071 1976 125 NI AS NOT_NAMED 1976-10-17 18:00:00 TS 12.5117 52.7992 main 54 54 O________OP___ jtwc_io IO081976 12.5000 52.8000 XX 30 -5 12.5000 52.8000 TC 30 12.5350 52.7975 1 3 259
1976286N11071 1976 125 NI AS NOT_NAMED 1976-10-17 21:00:00 TS 12.4996 52.6787 main 65 65 P________PP___ IO081976 12.4925 52.6775 XX -5 12.4925 52.6775 TC 12.5138 52.6810 1 2 267
1976286N11071 1976 125 NI AS NOT_NAMED 1976-10-18 00:00:00 TS 12.5000 52.6000 main 76 76 O________OO___ jtwc_io IO081976 12.5000 52.6000 -1 12.5000 52.6000 TC 12.5000 52.6000 1 1 270
1976286N11071 1976 125 NI AS NOT_NAMED 1976-10-18 03:00:00 TS 12.4989 52.5862 main 76 76 P________PP___ IO081976 12.5000 52.5850 -1 12.5000 52.5850 TC 12.4968 52.5885 1 0 0
1976286N11071 1976 125 NI AS NOT_NAMED 1976-10-18 06:00:00 TS 12.5000 52.6025 main 76 76 O________OP___ jtwc_io IO081976 12.5000 52.6000 -1 12.5000 52.6000 TC 12.4999 52.6075 1 0 87
1976286N11071 1976 125 NI AS NOT_NAMED 1976-10-18 09:00:00 TS 12.5010 52.6176 main 76 76 P________PP___ IO081976 12.5000 52.6150 -1 12.5000 52.6150 TC 12.5031 52.6228 1 0 0
1976286N11071 1976 125 NI AS NOT_NAMED 1976-10-18 12:00:00 TS 12.5000 52.6000 main 76 76 O________OO___ jtwc_io IO081976 12.5000 52.6000 -1 12.5000 52.6000 TC 12.5000 52.6000 1 1 270
1976286N11071 1976 125 NI AS NOT_NAMED 1976-10-18 15:00:00 TS 12.5003 52.5245 main 86 86 P________PP___ IO081976 12.5075 52.5300 -1 12.5075 52.5300 TC 12.4860 52.5134 1 2 267
1976286N11071 1976 125 NI AS NOT_NAMED 1976-10-18 18:00:00 TS 12.4876 52.3908 main 97 97 O________OP___ jtwc_io IO081976 12.5000 52.4000 -1 12.5000 52.4000 TC 12.4627 52.3724 1 3 261
1976286N11071 1976 125 NI AS NOT_NAMED 1976-10-18 21:00:00 TS 12.4510 52.2084 main 119 101 P________PP___ IO081976 12.4600 52.2150 -1 12.4600 52.2150 TC 12.4330 52.1953 1 4 257
1976286N11071 1976 125 NI AS NOT_NAMED 1976-10-19 00:00:00 TS 12.4000 52.0000 main 101 O________OO___ jtwc_io IO081976 12.4000 52.0000 -1 12.4000 52.0000 TC 12.4000 52.0000 6 4 256

IBTrACS Databaseについて

本データベースは、米国NOAAが公開する1842年以降の世界の熱帯低気圧のベストトラックデータアーカイブInternational Best Track Archive for Climate Stewardship (IBTrACS)を、ウェブで閲覧しやすい形式に変換したものです。

最終更新日:2021-10-19